sensor_id;sensor_type;location;lat;lon;timestamp;temperature;humidity
18281;DHT22;9266;51.132;17.062;2022-07-06T00:00:31;15.80;99.90
18281;DHT22;9266;51.132;17.062;2022-07-06T00:07:52;15.80;99.90
18281;DHT22;9266;51.132;17.062;2022-07-06T00:10:19;15.20;99.90
18281;DHT22;9266;51.132;17.062;2022-07-06T00:12:46;15.50;99.90
18281;DHT22;9266;51.132;17.062;2022-07-06T00:17:42;15.40;99.90
18281;DHT22;9266;51.132;17.062;2022-07-06T00:25:05;15.30;99.90
18281;DHT22;9266;51.132;17.062;2022-07-06T00:27:32;15.80;99.90
18281;DHT22;9266;51.132;17.062;2022-07-06T00:29:59;15.50;99.90
18281;DHT22;9266;51.132;17.062;2022-07-06T00:34:55;15.20;99.90
18281;DHT22;9266;51.132;17.062;2022-07-06T00:44:43;15.00;99.90
18281;DHT22;9266;51.132;17.062;2022-07-06T00:52:24;15.20;99.90
18281;DHT22;9266;51.132;17.062;2022-07-06T00:54:51;15.20;99.90
18281;DHT22;9266;51.132;17.062;2022-07-06T01:02:14;15.00;99.90
18281;DHT22;9266;51.132;17.062;2022-07-06T01:12:05;15.40;99.90
18281;DHT22;9266;51.132;17.062;2022-07-06T01:14:33;15.40;99.90
18281;DHT22;9266;51.132;17.062;2022-07-06T01:19:27;15.00;99.90
18281;DHT22;9266;51.132;17.062;2022-07-06T01:21:56;15.20;99.90
18281;DHT22;9266;51.132;17.062;2022-07-06T01:29:17;15.80;99.90
18281;DHT22;9266;51.132;17.062;2022-07-06T01:31:48;15.40;99.90
18281;DHT22;9266;51.132;17.062;2022-07-06T01:34:16;15.40;99.90
18281;DHT22;9266;51.132;17.062;2022-07-06T01:39:12;15.40;99.90
18281;DHT22;9266;51.132;17.062;2022-07-06T01:44:07;15.30;99.90
18281;DHT22;9266;51.132;17.062;2022-07-06T01:49:01;15.40;99.90
18281;DHT22;9266;51.132;17.062;2022-07-06T01:53:56;14.90;99.90
18281;DHT22;9266;51.132;17.062;2022-07-06T01:56:24;15.80;99.90
18281;DHT22;9266;51.132;17.062;2022-07-06T01:58:51;15.30;99.90
18281;DHT22;9266;51.132;17.062;2022-07-06T02:01:20;15.30;99.90
18281;DHT22;9266;51.132;17.062;2022-07-06T02:08:42;14.90;99.90
18281;DHT22;9266;51.132;17.062;2022-07-06T02:11:10;15.30;99.90
18281;DHT22;9266;51.132;17.062;2022-07-06T02:13:38;16.90;99.90
18281;DHT22;9266;51.132;17.062;2022-07-06T02:18:33;15.70;99.90
18281;DHT22;9266;51.132;17.062;2022-07-06T02:23:27;15.70;99.90
18281;DHT22;9266;51.132;17.062;2022-07-06T02:28:22;14.90;99.90
18281;DHT22;9266;51.132;17.062;2022-07-06T02:30:50;15.50;99.90
18281;DHT22;9266;51.132;17.062;2022-07-06T02:43:07;15.30;99.90
18281;DHT22;9266;51.132;17.062;2022-07-06T03:05:18;15.40;99.90
18281;DHT22;9266;51.132;17.062;2022-07-06T03:15:08;15.80;99.90
18281;DHT22;9266;51.132;17.062;2022-07-06T03:20:04;16.00;99.90
18281;DHT22;9266;51.132;17.062;2022-07-06T03:22:32;16.10;99.90
18281;DHT22;9266;51.132;17.062;2022-07-06T03:37:16;15.40;99.90
18281;DHT22;9266;51.132;17.062;2022-07-06T03:49:33;15.70;1.00
18281;DHT22;9266;51.132;17.062;2022-07-06T03:56:56;16.10;1.00
18281;DHT22;9266;51.132;17.062;2022-07-06T04:06:45;15.90;1.00
18281;DHT22;9266;51.132;17.062;2022-07-06T04:14:08;16.30;1.00
18281;DHT22;9266;51.132;17.062;2022-07-06T04:31:21;15.80;1.00
18281;DHT22;9266;51.132;17.062;2022-07-06T04:48:38;14.50;99.90
18281;DHT22;9266;51.132;17.062;2022-07-06T04:53:33;14.60;99.90
18281;DHT22;9266;51.132;17.062;2022-07-06T04:58:27;14.90;99.90
18281;DHT22;9266;51.132;17.062;2022-07-06T05:35:20;15.10;99.90
18281;DHT22;9266;51.132;17.062;2022-07-06T05:40:15;14.80;99.90
18281;DHT22;9266;51.132;17.062;2022-07-06T05:52:56;15.20;99.90
18281;DHT22;9266;51.132;17.062;2022-07-06T06:00:22;15.20;99.90
18281;DHT22;9266;51.132;17.062;2022-07-06T06:02:49;15.20;99.90
18281;DHT22;9266;51.132;17.062;2022-07-06T06:05:17;15.30;99.90
18281;DHT22;9266;51.132;17.062;2022-07-06T06:07:45;15.50;99.90
18281;DHT22;9266;51.132;17.062;2022-07-06T06:10:14;15.20;99.90
18281;DHT22;9266;51.132;17.062;2022-07-06T06:12:43;15.00;99.90
18281;DHT22;9266;51.132;17.062;2022-07-06T06:15:11;15.10;99.90
18281;DHT22;9266;51.132;17.062;2022-07-06T06:20:07;15.40;99.90
18281;DHT22;9266;51.132;17.062;2022-07-06T06:22:44;15.50;99.90
18281;DHT22;9266;51.132;17.062;2022-07-06T06:30:09;15.80;99.90
18281;DHT22;9266;51.132;17.062;2022-07-06T06:47:23;16.10;99.90
18281;DHT22;9266;51.132;17.062;2022-07-06T06:52:17;16.00;99.90
18281;DHT22;9266;51.132;17.062;2022-07-06T06:54:44;16.00;99.90
18281;DHT22;9266;51.132;17.062;2022-07-06T07:02:06;16.70;99.90
18281;DHT22;9266;51.132;17.062;2022-07-06T07:04:34;18.00;99.90
18281;DHT22;9266;51.132;17.062;2022-07-06T07:16:50;22.70;1.00
18281;DHT22;9266;51.132;17.062;2022-07-06T07:21:46;23.80;1.00
18281;DHT22;9266;51.132;17.062;2022-07-06T07:26:40;24.60;99.90
18281;DHT22;9266;51.132;17.062;2022-07-06T07:29:07;24.20;99.90
18281;DHT22;9266;51.132;17.062;2022-07-06T07:31:34;24.30;99.90
18281;DHT22;9266;51.132;17.062;2022-07-06T07:38:57;24.30;99.90
18281;DHT22;9266;51.132;17.062;2022-07-06T07:56:09;23.70;1.00
18281;DHT22;9266;51.132;17.062;2022-07-06T08:01:04;23.50;1.00
18281;DHT22;9266;51.132;17.062;2022-07-06T08:03:31;23.20;99.90
18281;DHT22;9266;51.132;17.062;2022-07-06T08:08:25;23.70;99.90
18281;DHT22;9266;51.132;17.062;2022-07-06T08:13:21;24.70;99.90
18281;DHT22;9266;51.132;17.062;2022-07-06T08:18:15;25.50;1.00
18281;DHT22;9266;51.132;17.062;2022-07-06T08:28:04;25.50;99.90
18281;DHT22;9266;51.132;17.062;2022-07-06T08:30:32;25.20;87.30
18281;DHT22;9266;51.132;17.062;2022-07-06T08:40:23;24.40;1.00
18281;DHT22;9266;51.132;17.062;2022-07-06T08:42:53;24.10;99.90
18281;DHT22;9266;51.132;17.062;2022-07-06T08:45:21;23.70;99.90
18281;DHT22;9266;51.132;17.062;2022-07-06T08:47:50;23.20;1.00
18281;DHT22;9266;51.132;17.062;2022-07-06T08:52:47;22.80;1.00
18281;DHT22;9266;51.132;17.062;2022-07-06T08:57:46;23.30;99.90
18281;DHT22;9266;51.132;17.062;2022-07-06T09:00:14;23.60;99.90
18281;DHT22;9266;51.132;17.062;2022-07-06T09:02:41;23.70;99.90
18281;DHT22;9266;51.132;17.062;2022-07-06T09:05:14;23.70;1.00
18281;DHT22;9266;51.132;17.062;2022-07-06T09:10:09;23.30;99.90
18281;DHT22;9266;51.132;17.062;2022-07-06T09:22:29;23.30;1.00
18281;DHT22;9266;51.132;17.062;2022-07-06T09:25:04;23.30;1.00
18281;DHT22;9266;51.132;17.062;2022-07-06T09:29:59;23.10;99.90
18281;DHT22;9266;51.132;17.062;2022-07-06T09:32:28;23.20;99.90
18281;DHT22;9266;51.132;17.062;2022-07-06T09:37:22;23.70;1.00
18281;DHT22;9266;51.132;17.062;2022-07-06T09:39:51;24.20;1.00
18281;DHT22;9266;51.132;17.062;2022-07-06T09:42:24;24.10;1.00
18281;DHT22;9266;51.132;17.062;2022-07-06T09:49:46;23.10;1.00
18281;DHT22;9266;51.132;17.062;2022-07-06T09:52:14;22.80;99.90
18281;DHT22;9266;51.132;17.062;2022-07-06T09:57:11;23.40;1.00
18281;DHT22;9266;51.132;17.062;2022-07-06T10:02:06;24.00;99.90
18281;DHT22;9266;51.132;17.062;2022-07-06T10:07:01;23.90;99.90
18281;DHT22;9266;51.132;17.062;2022-07-06T10:09:29;20.70;99.90
18281;DHT22;9266;51.132;17.062;2022-07-06T10:12:00;23.50;1.00
18281;DHT22;9266;51.132;17.062;2022-07-06T10:16:58;22.90;99.90
18281;DHT22;9266;51.132;17.062;2022-07-06T10:19:26;23.10;1.00
18281;DHT22;9266;51.132;17.062;2022-07-06T10:21:54;22.80;99.90
18281;DHT22;9266;51.132;17.062;2022-07-06T10:31:49;24.10;99.90
18281;DHT22;9266;51.132;17.062;2022-07-06T10:34:19;24.40;1.00
18281;DHT22;9266;51.132;17.062;2022-07-06T10:47:00;24.30;99.90
18281;DHT22;9266;51.132;17.062;2022-07-06T10:54:24;23.50;99.90
18281;DHT22;9266;51.132;17.062;2022-07-06T10:56:51;23.80;1.00
18281;DHT22;9266;51.132;17.062;2022-07-06T10:59:20;23.80;1.00
18281;DHT22;9266;51.132;17.062;2022-07-06T11:02:15;23.80;1.00
18281;DHT22;9266;51.132;17.062;2022-07-06T11:07:11;23.10;28.90
18281;DHT22;9266;51.132;17.062;2022-07-06T11:12:18;23.00;1.00
18281;DHT22;9266;51.132;17.062;2022-07-06T11:14:47;22.50;1.00
18281;DHT22;9266;51.132;17.062;2022-07-06T11:17:16;22.30;99.90
18281;DHT22;9266;51.132;17.062;2022-07-06T11:19:56;22.30;42.60
18281;DHT22;9266;51.132;17.062;2022-07-06T11:22:23;22.00;1.00
18281;DHT22;9266;51.132;17.062;2022-07-06T11:44:37;23.10;1.40
18281;DHT22;9266;51.132;17.062;2022-07-06T11:47:06;23.10;1.00
18281;DHT22;9266;51.132;17.062;2022-07-06T11:49:35;23.00;1.00
18281;DHT22;9266;51.132;17.062;2022-07-06T11:52:11;23.20;1.00
18281;DHT22;9266;51.132;17.062;2022-07-06T11:54:39;23.10;11.10
18281;DHT22;9266;51.132;17.062;2022-07-06T11:57:08;23.50;99.90
18281;DHT22;9266;51.132;17.062;2022-07-06T11:59:37;23.60;1.00
18281;DHT22;9266;51.132;17.062;2022-07-06T12:02:06;23.00;99.90
18281;DHT22;9266;51.132;17.062;2022-07-06T12:04:34;23.40;99.90
18281;DHT22;9266;51.132;17.062;2022-07-06T12:07:03;24.50;1.00
18281;DHT22;9266;51.132;17.062;2022-07-06T12:09:33;24.40;1.00
18281;DHT22;9266;51.132;17.062;2022-07-06T12:12:02;24.00;1.00
18281;DHT22;9266;51.132;17.062;2022-07-06T12:14:33;23.80;1.00
18281;DHT22;9266;51.132;17.062;2022-07-06T12:17:03;23.80;1.00
18281;DHT22;9266;51.132;17.062;2022-07-06T12:19:32;23.80;1.00
18281;DHT22;9266;51.132;17.062;2022-07-06T12:24:29;23.30;1.00
18281;DHT22;9266;51.132;17.062;2022-07-06T12:27:11;23.10;99.90
18281;DHT22;9266;51.132;17.062;2022-07-06T14:35:47;23.80;99.90
18281;DHT22;9266;51.132;17.062;2022-07-06T18:07:37;20.70;99.90
18281;DHT22;9266;51.132;17.062;2022-07-06T18:12:32;20.60;99.90
18281;DHT22;9266;51.132;17.062;2022-07-06T20:03:24;16.90;1.00
18281;DHT22;9266;51.132;17.062;2022-07-06T20:42:46;18.90;1.00
18281;DHT22;9266;51.132;17.062;2022-07-06T20:55:05;15.90;99.90
18281;DHT22;9266;51.132;17.062;2022-07-06T22:16:17;14.60;1.00
18281;DHT22;9266;51.132;17.062;2022-07-06T22:18:47;14.50;1.00
18281;DHT22;9266;51.132;17.062;2022-07-06T22:26:11;14.30;15.70
18281;DHT22;9266;51.132;17.062;2022-07-06T22:43:31;13.60;1.00
18281;DHT22;9266;51.132;17.062;2022-07-06T22:45:59;13.50;1.00
18281;DHT22;9266;51.132;17.062;2022-07-06T22:48:28;13.50;1.00
18281;DHT22;9266;51.132;17.062;2022-07-06T23:40:12;13.80;1.00
